createdAt,value
2018-09-15T00:01:53.026Z,14.19
2018-09-15T00:04:24.772Z,14.20
2018-09-15T00:06:56.125Z,14.21
2018-09-15T00:09:26.159Z,14.20
2018-09-15T00:11:55.721Z,14.17
2018-09-15T00:14:25.450Z,14.19
2018-09-15T00:16:55.541Z,14.19
2018-09-15T00:19:24.735Z,14.21
2018-09-15T00:21:54.333Z,14.23
2018-09-15T00:24:24.569Z,14.28
2018-09-15T00:26:54.219Z,14.34
2018-09-15T00:29:23.913Z,14.34
2018-09-15T00:31:53.477Z,14.27
2018-09-15T00:34:24.463Z,14.27
2018-09-15T00:36:53.599Z,14.29
2018-09-15T00:39:23.420Z,14.26
2018-09-15T00:41:53.064Z,14.31
2018-09-15T00:44:22.424Z,14.28
2018-09-15T00:46:52.237Z,14.29
2018-09-15T00:49:21.611Z,14.31
2018-09-15T00:51:52.973Z,14.29
2018-09-15T00:54:22.604Z,14.33
2018-09-15T00:56:51.921Z,14.35
2018-09-15T00:59:21.506Z,14.35
2018-09-15T01:01:50.857Z,14.37
2018-09-15T01:04:20.144Z,14.30
2018-09-15T01:06:52.452Z,14.29
2018-09-15T01:09:22.079Z,14.28
2018-09-15T01:11:51.567Z,14.29
2018-09-15T01:14:21.454Z,14.26
2018-09-15T01:16:51.003Z,14.24
2018-09-15T01:19:20.331Z,13.57
2018-09-15T01:21:50.007Z,14.26
2018-09-15T01:24:19.945Z,14.26
2018-09-15T01:26:49.246Z,14.26
2018-09-15T01:29:19.902Z,14.24
2018-09-15T01:31:49.653Z,14.27
2018-09-15T01:34:19.527Z,14.26
2018-09-15T01:36:49.580Z,14.23
2018-09-15T01:39:18.955Z,14.25
2018-09-15T01:41:49.004Z,14.21
2018-09-15T01:44:18.371Z,14.19
2018-09-15T01:46:47.863Z,14.22
2018-09-15T01:49:17.429Z,14.26
2018-09-15T01:51:46.809Z,14.29
2018-09-15T01:54:16.540Z,14.31
2018-09-15T01:56:46.527Z,14.33
2018-09-15T01:59:15.812Z,14.30
2018-09-15T02:01:45.053Z,14.28
2018-09-15T02:04:15.169Z,14.28
2018-09-15T02:06:44.712Z,14.28
2018-09-15T02:09:15.440Z,14.34
2018-09-15T02:11:45.292Z,14.26
2018-09-15T02:14:14.549Z,14.24
2018-09-15T02:16:43.796Z,14.23
2018-09-15T02:19:13.696Z,14.23
2018-09-15T02:21:43.207Z,14.19
2018-09-15T02:24:12.456Z,14.19
2018-09-15T02:26:42.068Z,14.21
2018-09-15T02:29:11.468Z,14.23
2018-09-15T02:31:40.726Z,14.21
2018-09-15T02:34:11.239Z,14.21
2018-09-15T02:36:40.911Z,14.22
2018-09-15T02:39:10.805Z,14.23
2018-09-15T02:41:40.800Z,14.26
2018-09-15T02:44:10.163Z,14.26
2018-09-15T02:46:39.722Z,14.22
2018-09-15T02:49:09.489Z,14.22
2018-09-15T02:51:39.011Z,14.20
2018-09-15T02:54:08.235Z,14.21
2018-09-15T02:56:37.732Z,14.24
2018-09-15T02:59:07.055Z,14.27
2018-09-15T03:01:36.143Z,14.29
2018-09-15T03:04:05.911Z,14.26
2018-09-15T03:06:35.123Z,14.26
2018-09-15T03:09:06.926Z,14.26
2018-09-15T03:11:37.110Z,14.24
2018-09-15T03:14:06.428Z,14.24
2018-09-15T03:16:40.307Z,14.24
2018-09-15T03:19:10.465Z,14.25
2018-09-15T03:21:40.345Z,14.23
2018-09-15T03:24:09.817Z,14.25
2018-09-15T03:26:39.713Z,14.26
2018-09-15T03:29:09.430Z,14.29
2018-09-15T03:31:38.851Z,14.26
2018-09-15T03:34:08.504Z,14.24
2018-09-15T03:36:38.818Z,14.24
2018-09-15T03:39:14.094Z,14.22
2018-09-15T03:41:43.426Z,14.25
2018-09-15T03:44:12.763Z,14.29
2018-09-15T03:46:41.978Z,13.42
2018-09-15T03:49:12.409Z,14.29
2018-09-15T03:51:42.116Z,14.31
2018-09-15T03:54:15.974Z,14.32
2018-09-15T03:56:45.280Z,14.27
2018-09-15T03:59:15.187Z,14.32
2018-09-15T04:01:44.701Z,14.36
2018-09-15T04:04:14.475Z,14.35
2018-09-15T04:06:43.598Z,14.33
2018-09-15T04:09:13.392Z,14.35
2018-09-15T04:11:42.772Z,14.36
2018-09-15T04:14:12.159Z,14.36
2018-09-15T04:16:41.611Z,14.37
2018-09-15T04:19:11.433Z,14.36
2018-09-15T04:21:41.381Z,14.30
2018-09-15T04:24:11.482Z,14.33
2018-09-15T04:26:42.169Z,14.32
2018-09-15T04:29:11.854Z,14.34
2018-09-15T04:31:41.418Z,14.27
2018-09-15T04:34:10.705Z,14.29
2018-09-15T04:36:40.444Z,14.33
2018-09-15T04:39:12.669Z,14.31
2018-09-15T04:41:42.704Z,14.34
2018-09-15T04:44:12.481Z,14.37
2018-09-15T04:46:42.191Z,14.34
2018-09-15T04:49:11.475Z,14.31
2018-09-15T04:51:40.854Z,14.35
2018-09-15T04:54:10.372Z,14.39
2018-09-15T04:56:40.374Z,14.40
2018-09-15T04:59:10.652Z,14.37
2018-09-15T05:01:40.081Z,14.42
2018-09-15T05:04:09.566Z,14.27
2018-09-15T05:06:39.030Z,14.21
2018-09-15T05:09:11.499Z,14.18
2018-09-15T05:11:41.772Z,14.12
2018-09-15T05:14:11.116Z,14.08
2018-09-15T05:16:40.534Z,14.01
2018-09-15T05:22:02.565Z,13.96
2018-09-15T05:24:33.058Z,13.82
2018-09-15T05:27:02.880Z,13.75
2018-09-15T05:29:32.217Z,13.60
2018-09-15T05:32:01.848Z,13.45
2018-09-15T05:34:31.399Z,13.40
2018-09-15T05:37:00.990Z,13.36
2018-09-15T05:39:30.485Z,13.30
2018-09-15T05:45:23.047Z,13.18
2018-09-15T05:47:52.325Z,13.24
2018-09-15T05:50:36.110Z,13.30
2018-09-15T05:53:05.843Z,13.33
2018-09-15T05:55:35.339Z,13.45
2018-09-15T05:58:05.608Z,13.48
2018-09-15T06:00:34.999Z,13.56
2018-09-15T06:03:04.732Z,13.57
2018-09-15T06:05:35.905Z,13.63
2018-09-15T06:08:05.116Z,13.67
2018-09-15T06:10:34.575Z,13.63
2018-09-15T06:13:04.179Z,13.79
2018-09-15T06:15:35.106Z,13.78
2018-09-15T06:18:04.841Z,13.84
2018-09-15T06:20:34.501Z,13.78
2018-09-15T06:23:04.608Z,13.20
2018-09-15T06:25:34.681Z,13.53
2018-09-15T06:28:04.340Z,13.50
2018-09-15T06:30:33.670Z,13.43
2018-09-15T06:33:03.230Z,13.27
2018-09-15T06:35:32.740Z,13.51
2018-09-15T06:38:02.197Z,13.60
2018-09-15T06:40:31.733Z,13.63
2018-09-15T06:43:01.270Z,13.69
2018-09-15T06:45:30.682Z,13.74
2018-09-15T06:48:00.486Z,13.79
2018-09-15T06:50:29.985Z,13.88
2018-09-15T06:52:59.639Z,13.91
2018-09-15T06:55:30.348Z,13.97
2018-09-15T06:58:00.375Z,14.05
2018-09-15T07:00:30.316Z,13.97
2018-09-15T07:03:00.016Z,14.00
2018-09-15T07:05:30.074Z,14.13
2018-09-15T07:07:59.594Z,14.21
2018-09-15T07:10:28.813Z,14.29
2018-09-15T07:12:58.200Z,14.33
2018-09-15T07:15:27.781Z,14.38
2018-09-15T07:17:57.069Z,14.40
2018-09-15T07:20:26.254Z,14.43
2018-09-15T07:22:55.612Z,14.52
2018-09-15T07:25:25.507Z,14.47
2018-09-15T07:27:55.346Z,14.49
2018-09-15T07:30:24.973Z,14.62
2018-09-15T07:32:55.496Z,14.65
2018-09-15T07:35:25.256Z,14.69
2018-09-15T07:37:55.214Z,14.72
2018-09-15T07:40:25.344Z,14.73
2018-09-15T07:42:55.089Z,14.86
2018-09-15T07:45:26.107Z,14.91
2018-09-15T07:47:55.620Z,14.95
2018-09-15T07:50:25.069Z,14.81
2018-09-15T07:52:54.727Z,14.84
2018-09-15T07:55:24.128Z,14.88
2018-09-15T07:57:53.594Z,14.81
2018-09-15T08:00:24.535Z,14.80
2018-09-15T08:02:54.698Z,14.77
2018-09-15T08:05:24.173Z,14.80
2018-09-15T08:07:53.682Z,14.89
2018-09-15T08:10:23.256Z,14.76
2018-09-15T08:12:52.679Z,14.85
2018-09-15T08:15:23.391Z,14.86
2018-09-15T08:17:53.574Z,14.65
2018-09-15T08:20:23.807Z,14.57
2018-09-15T08:22:54.108Z,14.46
2018-09-15T08:25:23.362Z,14.61
2018-09-15T08:27:53.064Z,14.67
2018-09-15T08:30:22.428Z,14.76
2018-09-15T08:32:51.803Z,14.69
2018-09-15T08:35:21.242Z,14.71
2018-09-15T08:37:50.657Z,15.84
2018-09-15T08:40:20.224Z,17.63
2018-09-15T08:42:50.010Z,18.09
2018-09-15T08:45:19.905Z,18.02
2018-09-15T08:47:49.366Z,16.96
2018-09-15T08:50:18.589Z,16.51
2018-09-15T08:52:48.575Z,16.39
2018-09-15T08:55:18.131Z,16.18
2018-09-15T08:57:49.346Z,16.51
2018-09-15T09:00:18.986Z,16.58
2018-09-15T09:02:48.530Z,16.53
2018-09-15T09:05:17.583Z,16.25
2018-09-15T09:07:46.998Z,16.33
2018-09-15T09:10:16.384Z,16.67
2018-09-15T09:12:45.886Z,16.59
2018-09-15T09:15:15.486Z,16.57
2018-09-15T09:17:44.732Z,16.72
2018-09-15T09:20:14.468Z,16.61
2018-09-15T09:22:44.010Z,16.52
2018-09-15T09:25:13.436Z,16.32
2018-09-15T09:27:42.344Z,16.35
2018-09-15T09:30:12.049Z,16.62
2018-09-15T09:32:41.198Z,16.72
2018-09-15T09:35:10.402Z,16.94
2018-09-15T09:37:40.117Z,17.16
2018-09-15T09:40:09.391Z,17.26
2018-09-15T09:42:38.788Z,17.28
2018-09-15T09:45:08.721Z,17.51
2018-09-15T09:47:38.521Z,17.22
2018-09-15T09:50:08.287Z,17.42
2018-09-15T09:52:37.774Z,17.40
2018-09-15T09:55:07.123Z,16.77
2018-09-15T09:57:36.319Z,16.54
2018-09-15T10:00:06.189Z,16.45
2018-09-15T10:02:35.960Z,16.41
2018-09-15T10:05:05.606Z,16.70
2018-09-15T10:07:35.642Z,16.96
2018-09-15T10:10:05.019Z,16.68
2018-09-15T10:12:34.341Z,16.91
2018-09-15T10:15:04.284Z,16.79
2018-09-15T10:17:33.329Z,16.85
2018-09-15T10:20:02.385Z,16.88
2018-09-15T10:22:32.293Z,16.71
2018-09-15T10:25:01.424Z,16.22
2018-09-15T10:27:30.904Z,16.17
2018-09-15T10:30:00.483Z,16.29
2018-09-15T10:32:29.741Z,16.07
2018-09-15T10:34:59.133Z,16.17
2018-09-15T10:37:28.771Z,16.35
2018-09-15T10:39:58.214Z,16.20
2018-09-15T10:42:27.686Z,16.19
2018-09-15T10:44:57.477Z,16.07
2018-09-15T10:47:26.910Z,16.12
2018-09-15T10:49:56.434Z,16.20
2018-09-15T10:52:26.175Z,16.35
2018-09-15T10:54:56.781Z,16.28
2018-09-15T10:57:26.498Z,16.43
2018-09-15T10:59:56.016Z,16.34
2018-09-15T11:02:25.384Z,16.42
2018-09-15T11:05:00.153Z,16.54
2018-09-15T11:07:29.739Z,16.71
2018-09-15T11:09:59.086Z,16.78
2018-09-15T11:12:28.932Z,16.54
2018-09-15T11:14:58.468Z,16.43
2018-09-15T11:17:27.827Z,16.62
2018-09-15T11:19:57.283Z,16.59
2018-09-15T11:22:26.748Z,16.58
2018-09-15T11:24:56.004Z,16.39
2018-09-15T11:27:25.704Z,16.36
2018-09-15T11:29:54.976Z,16.58
2018-09-15T11:32:24.502Z,16.48
2018-09-15T11:35:06.966Z,16.53
2018-09-15T11:40:32.488Z,16.57
2018-09-15T11:43:08.273Z,16.72
2018-09-15T11:45:38.313Z,16.74
2018-09-15T11:48:32.808Z,16.82
2018-09-15T11:51:03.217Z,16.86
2018-09-15T11:53:32.408Z,16.80
2018-09-15T11:56:01.672Z,16.65
2018-09-15T11:58:37.923Z,16.87
2018-09-15T12:01:08.478Z,16.88
2018-09-15T12:03:38.224Z,16.93
2018-09-15T12:06:13.449Z,16.70
2018-09-15T12:08:46.477Z,16.84
2018-09-15T12:11:17.685Z,16.89
2018-09-15T12:13:47.359Z,17.09
2018-09-15T12:16:16.447Z,17.05
2018-09-15T12:18:47.120Z,17.06
2018-09-15T12:21:16.456Z,17.32
2018-09-15T12:23:45.715Z,17.41
2018-09-15T12:26:18.035Z,17.48
2018-09-15T12:28:48.846Z,17.49
2018-09-15T12:31:18.165Z,17.28
2018-09-15T12:33:48.932Z,17.14
2018-09-15T12:36:18.289Z,17.29
2018-09-15T12:38:48.397Z,17.25
2018-09-15T12:41:17.802Z,17.33
2018-09-15T12:43:48.262Z,17.20
2018-09-15T12:46:17.246Z,17.16
2018-09-15T12:48:46.644Z,16.95
2018-09-15T12:51:15.842Z,17.03
2018-09-15T12:53:44.927Z,17.12
2018-09-15T12:56:14.014Z,17.24
2018-09-15T12:58:43.167Z,17.26
2018-09-15T13:01:12.195Z,17.05
2018-09-15T13:03:43.526Z,16.93
2018-09-15T13:06:12.884Z,16.98
2018-09-15T13:08:41.938Z,17.13
2018-09-15T13:11:11.583Z,17.10
2018-09-15T13:13:40.927Z,17.10
2018-09-15T13:16:10.525Z,17.11
2018-09-15T13:18:40.350Z,17.00
2018-09-15T13:21:10.283Z,16.89
2018-09-15T13:23:39.383Z,16.92
2018-09-15T13:26:09.231Z,16.88
2018-09-15T13:28:38.606Z,16.89
2018-09-15T13:31:08.098Z,16.91
2018-09-15T13:33:37.731Z,16.94
2018-09-15T13:36:06.906Z,16.92
2018-09-15T13:38:35.907Z,16.75
2018-09-15T13:41:05.363Z,16.71
2018-09-15T13:43:34.709Z,16.72
2018-09-15T13:46:05.009Z,16.66
2018-09-15T13:48:34.763Z,16.79
2018-09-15T13:51:04.740Z,16.93
2018-09-15T13:53:34.159Z,16.99
2018-09-15T13:56:03.597Z,16.63
2018-09-15T13:58:32.679Z,16.67
2018-09-15T14:01:01.749Z,16.58
2018-09-15T14:03:31.101Z,16.58
2018-09-15T14:06:00.203Z,16.64
2018-09-15T14:08:29.215Z,16.79
2018-09-15T14:10:58.377Z,16.65
2018-09-15T14:13:27.913Z,16.73
2018-09-15T14:15:56.891Z,16.67
2018-09-15T14:18:26.177Z,16.73
2018-09-15T14:20:55.277Z,16.79
2018-09-15T14:23:24.288Z,16.68
2018-09-15T14:25:54.144Z,16.80
2018-09-15T14:28:23.190Z,16.82
2018-09-15T14:30:52.435Z,16.70
2018-09-15T14:33:21.725Z,16.78
2018-09-15T14:35:50.756Z,16.83
2018-09-15T14:38:19.844Z,16.81
2018-09-15T14:40:48.919Z,16.76
2018-09-15T14:43:18.115Z,16.96
2018-09-15T14:45:47.150Z,16.77
2018-09-15T14:48:16.796Z,16.80
2018-09-15T14:50:46.445Z,16.63
2018-09-15T14:53:15.764Z,16.47
2018-09-15T14:55:45.196Z,16.44
2018-09-15T14:58:14.181Z,16.45
2018-09-15T15:00:43.137Z,16.24
2018-09-15T15:03:12.956Z,16.26
2018-09-15T15:05:41.873Z,16.17
2018-09-15T15:08:11.319Z,16.25
2018-09-15T15:10:40.938Z,16.29
2018-09-15T15:13:09.915Z,16.30
2018-09-15T15:15:39.144Z,16.35
2018-09-15T15:18:08.666Z,16.18
2018-09-15T15:20:37.739Z,16.01
2018-09-15T15:23:06.918Z,15.98
2018-09-15T15:25:36.188Z,16.00
2018-09-15T15:28:05.796Z,16.06
2018-09-15T15:30:34.852Z,15.90
2018-09-15T15:33:04.217Z,15.93
2018-09-15T15:35:33.557Z,15.92
2018-09-15T15:38:03.042Z,15.89
2018-09-15T15:40:32.256Z,15.89
2018-09-15T15:43:01.234Z,16.00
2018-09-15T15:45:30.366Z,16.00
2018-09-15T15:47:59.665Z,16.05
2018-09-15T15:50:28.697Z,16.05
2018-09-15T15:52:57.646Z,16.12
2018-09-15T15:55:26.838Z,16.08
2018-09-15T15:57:55.881Z,16.18
2018-09-15T16:00:25.034Z,16.09
2018-09-15T16:02:54.638Z,15.95
2018-09-15T16:05:23.710Z,15.94
2018-09-15T16:07:52.840Z,16.03
2018-09-15T16:10:22.184Z,16.04
2018-09-15T16:12:51.177Z,15.95
2018-09-15T16:15:20.453Z,15.93
2018-09-15T16:17:49.963Z,15.92
2018-09-15T16:20:19.114Z,15.93
2018-09-15T16:22:48.394Z,15.96
2018-09-15T16:25:18.039Z,15.98
2018-09-15T16:27:46.944Z,15.84
2018-09-15T16:30:16.081Z,15.76
2018-09-15T16:32:45.185Z,15.79
2018-09-15T16:35:14.181Z,15.79
2018-09-15T16:37:43.591Z,15.85
2018-09-15T16:40:12.831Z,15.79
2018-09-15T16:42:41.898Z,15.76
2018-09-15T16:45:12.301Z,15.73
2018-09-15T16:47:41.789Z,15.76
2018-09-15T16:50:10.778Z,15.73
2018-09-15T16:52:40.193Z,15.65
2018-09-15T16:55:09.770Z,15.61
2018-09-15T16:57:39.214Z,15.58
2018-09-15T17:00:08.404Z,15.64
2018-09-15T17:02:39.069Z,15.49
2018-09-15T17:05:08.750Z,15.61
2018-09-15T17:07:38.204Z,15.67
2018-09-15T17:10:07.625Z,15.65
2018-09-15T17:12:38.472Z,15.68
2018-09-15T17:15:07.844Z,15.63
2018-09-15T17:17:37.232Z,15.62
2018-09-15T17:20:07.089Z,15.59
2018-09-15T17:22:37.550Z,15.48
2018-09-15T17:25:06.767Z,15.43
2018-09-15T17:27:35.905Z,15.39
2018-09-15T17:30:05.010Z,15.41
2018-09-15T17:32:34.166Z,15.34
2018-09-15T17:35:03.260Z,15.39
2018-09-15T17:37:33.391Z,15.39
2018-09-15T17:40:03.393Z,15.28
2018-09-15T17:42:32.666Z,15.27
2018-09-15T17:45:03.050Z,15.19
2018-09-15T17:47:33.448Z,15.16
2018-09-15T17:50:03.434Z,15.18
2018-09-15T17:52:34.021Z,15.21
2018-09-15T17:55:03.414Z,15.18
2018-09-15T17:57:32.734Z,15.18
2018-09-15T18:00:02.207Z,15.16
2018-09-15T18:02:31.643Z,15.12
2018-09-15T18:05:01.154Z,15.14
2018-09-15T18:07:30.567Z,15.13
2018-09-15T18:10:00.213Z,15.13
2018-09-15T18:12:29.700Z,15.09
2018-09-15T18:14:59.213Z,15.06
2018-09-15T18:17:28.721Z,15.05
2018-09-15T18:19:58.123Z,14.86
2018-09-15T18:22:27.782Z,14.97
2018-09-15T18:24:57.397Z,15.00
2018-09-15T18:27:28.088Z,15.05
2018-09-15T18:29:57.726Z,15.02
2018-09-15T18:32:28.657Z,15.01
2018-09-15T18:34:57.686Z,15.04
2018-09-15T18:37:27.054Z,15.03
2018-09-15T18:39:56.208Z,15.05
2018-09-15T18:42:25.341Z,15.05
2018-09-15T18:44:54.765Z,15.07
2018-09-15T18:47:23.906Z,15.08
2018-09-15T18:49:53.068Z,15.08
2018-09-15T18:52:22.443Z,15.03
2018-09-15T18:54:52.615Z,15.03
2018-09-15T18:57:23.841Z,15.08
2018-09-15T18:59:53.313Z,14.89
2018-09-15T19:02:23.069Z,15.03
2018-09-15T19:04:52.822Z,15.05
2018-09-15T19:07:23.056Z,15.01
2018-09-15T19:09:52.970Z,14.96
2018-09-15T19:12:22.723Z,14.92
2018-09-15T19:14:53.153Z,14.93
2018-09-15T19:17:22.140Z,14.95
2018-09-15T19:19:51.740Z,14.89
2018-09-15T19:22:21.554Z,14.89
2018-09-15T19:24:50.920Z,13.64
2018-09-15T19:27:20.441Z,14.94
2018-09-15T19:29:50.318Z,14.93
2018-09-15T19:32:19.654Z,15.00
2018-09-15T19:34:48.970Z,14.98
2018-09-15T19:37:18.272Z,15.01
2018-09-15T19:39:47.599Z,15.00
2018-09-15T19:42:17.155Z,14.99
2018-09-15T19:44:47.201Z,14.98
2018-09-15T19:47:16.763Z,14.96
2018-09-15T19:49:46.856Z,14.96
2018-09-15T19:52:16.239Z,14.97
2018-09-15T19:54:45.492Z,15.00
2018-09-15T19:57:14.469Z,14.88
2018-09-15T19:59:43.725Z,14.91
2018-09-15T20:02:12.981Z,14.92
2018-09-15T20:04:42.453Z,14.93
2018-09-15T20:07:12.015Z,14.85
2018-09-15T20:09:41.249Z,14.87
2018-09-15T20:12:10.711Z,14.93
2018-09-15T20:14:40.104Z,14.95
2018-09-15T20:17:08.263Z,14.95
2018-09-15T20:19:35.769Z,14.96
2018-09-15T20:22:05.359Z,14.91
2018-09-15T20:24:34.791Z,14.90
2018-09-15T20:27:04.990Z,14.82
2018-09-15T20:29:34.625Z,14.78
2018-09-15T20:32:04.864Z,14.87
2018-09-15T20:34:34.133Z,14.88
2018-09-15T20:37:03.331Z,14.85
2018-09-15T20:39:32.958Z,14.86
2018-09-15T20:42:01.935Z,14.89
2018-09-15T20:44:31.445Z,14.89
2018-09-15T20:47:00.419Z,14.87
2018-09-15T20:49:29.319Z,14.83
2018-09-15T20:51:59.020Z,14.78
2018-09-15T20:54:28.335Z,14.83
2018-09-15T20:56:57.607Z,14.87
2018-09-15T20:59:27.144Z,14.87
2018-09-15T21:01:56.369Z,14.80
2018-09-15T21:04:25.847Z,14.81
2018-09-15T21:06:55.337Z,14.82
2018-09-15T21:09:24.638Z,14.84
2018-09-15T21:11:53.870Z,14.82
2018-09-15T21:14:23.467Z,14.87
2018-09-15T21:16:52.391Z,14.85
2018-09-15T21:19:22.053Z,14.75
2018-09-15T21:21:51.860Z,14.77
2018-09-15T21:24:21.230Z,14.76
2018-09-15T21:26:50.347Z,14.14
2018-09-15T21:29:19.735Z,14.66
2018-09-15T21:31:49.258Z,14.66
2018-09-15T21:34:18.668Z,14.67
2018-09-15T21:36:48.375Z,14.68
2018-09-15T21:39:17.642Z,14.69
2018-09-15T21:41:46.936Z,14.67
2018-09-15T21:44:16.384Z,14.61
2018-09-15T21:46:45.686Z,14.62
2018-09-15T21:49:14.965Z,14.62
2018-09-15T21:51:44.330Z,14.62
2018-09-15T21:54:14.016Z,14.60
2018-09-15T21:56:43.146Z,14.62
2018-09-15T21:59:12.696Z,14.63
2018-09-15T22:01:41.965Z,14.55
2018-09-15T22:04:15.896Z,14.53
2018-09-15T22:06:45.137Z,14.55
2018-09-15T22:09:14.761Z,14.56
2018-09-15T22:11:44.671Z,14.59
2018-09-15T22:14:14.300Z,14.62
2018-09-15T22:16:44.061Z,14.56
2018-09-15T22:19:13.465Z,14.52
2018-09-15T22:21:42.616Z,14.52
2018-09-15T22:24:11.573Z,14.49
2018-09-15T22:26:41.020Z,14.56
2018-09-15T22:29:10.483Z,14.54
2018-09-15T22:31:39.615Z,14.59
2018-09-15T22:34:09.069Z,14.59
2018-09-15T22:36:38.617Z,14.60
2018-09-15T22:39:09.179Z,14.60
2018-09-15T22:41:38.783Z,14.57
2018-09-15T22:44:08.199Z,14.64
2018-09-15T22:46:38.071Z,14.66
2018-09-15T22:49:07.146Z,14.61
2018-09-15T22:51:36.666Z,14.56
2018-09-15T22:54:06.337Z,14.55
2018-09-15T22:56:35.618Z,14.51
2018-09-15T22:59:05.047Z,14.50
2018-09-15T23:01:34.378Z,14.49
2018-09-15T23:04:04.305Z,14.45
2018-09-15T23:06:33.929Z,14.49
2018-09-15T23:09:03.353Z,14.52
2018-09-15T23:11:32.463Z,14.48
2018-09-15T23:14:01.898Z,14.45
2018-09-15T23:16:31.026Z,14.48
2018-09-15T23:19:00.157Z,14.48
2018-09-15T23:21:29.570Z,14.47
2018-09-15T23:23:59.069Z,14.49
2018-09-15T23:26:27.950Z,14.43
2018-09-15T23:28:57.693Z,14.40
2018-09-15T23:31:27.057Z,14.37
2018-09-15T23:33:56.408Z,14.37
2018-09-15T23:36:26.077Z,14.29
2018-09-15T23:38:55.360Z,14.29
2018-09-15T23:41:24.611Z,14.26
2018-09-15T23:43:54.249Z,14.30
2018-09-15T23:46:23.446Z,14.22
2018-09-15T23:48:53.242Z,14.25
2018-09-15T23:51:22.864Z,14.25
2018-09-15T23:53:52.169Z,14.26
2018-09-15T23:56:21.441Z,14.22
2018-09-15T23:58:51.086Z,14.27
